Terminal Aerodrome Forecast
Issued by NWS

Home | Current Version | Previous Version | Graphics & Text | Print | Product List | Glossary Off
Versions: 1 2 3 4 5 6 7 8 9 10 11 12 13 14 15 16 17 18 19 20 21 22 23 24 25 26 27 28 29 30 31

000
FTUS43 KDDC 271720
TAFGCK
TAF
KGCK 271720Z 2718/2818 17004KT P6SM SKC
     FM271900 13010KT P6SM SKC
     FM280000 13010G20KT P6SM OVC150
     FM280600 12015G25KT P6SM OVC100
     FM281200 12015G25KT 4SM BR OVC010
     FM281500 09020G30KT 1SM -RA OVC003=

USA.gov is the U.S. government's official web portal to all federal, state and local government web resources and services.